sensor_id;sensor_type;location;lat;lon;timestamp;P1;durP1;ratioP1;P2;durP2;ratioP2
7361;SDS011;3721;44.490;11.220;2023-02-12T00:00:58;17.60;;;9.40;;
7361;SDS011;3721;44.490;11.220;2023-02-12T00:03:24;16.17;;;8.67;;
7361;SDS011;3721;44.490;11.220;2023-02-12T00:05:50;17.70;;;9.30;;
7361;SDS011;3721;44.490;11.220;2023-02-12T00:08:15;17.67;;;9.40;;
7361;SDS011;3721;44.490;11.220;2023-02-12T00:10:41;15.67;;;8.40;;
7361;SDS011;3721;44.490;11.220;2023-02-12T00:13:08;16.53;;;8.40;;
7361;SDS011;3721;44.490;11.220;2023-02-12T00:15:37;14.80;;;8.30;;
7361;SDS011;3721;44.490;11.220;2023-02-12T00:18:03;14.07;;;7.80;;
7361;SDS011;3721;44.490;11.220;2023-02-12T00:20:29;16.53;;;8.40;;
7361;SDS011;3721;44.490;11.220;2023-02-12T00:22:54;19.80;;;9.00;;
7361;SDS011;3721;44.490;11.220;2023-02-12T00:25:20;15.67;;;8.30;;
7361;SDS011;3721;44.490;11.220;2023-02-12T00:27:46;13.53;;;6.93;;
7361;SDS011;3721;44.490;11.220;2023-02-12T00:30:12;16.53;;;8.87;;
7361;SDS011;3721;44.490;11.220;2023-02-12T00:32:37;16.30;;;9.33;;
7361;SDS011;3721;44.490;11.220;2023-02-12T00:35:04;15.03;;;8.73;;
7361;SDS011;3721;44.490;11.220;2023-02-12T00:37:30;15.57;;;7.97;;
7361;SDS011;3721;44.490;11.220;2023-02-12T00:39:56;14.00;;;7.53;;
7361;SDS011;3721;44.490;11.220;2023-02-12T00:42:22;15.50;;;8.40;;
7361;SDS011;3721;44.490;11.220;2023-02-12T00:44:47;14.57;;;8.00;;
7361;SDS011;3721;44.490;11.220;2023-02-12T00:47:13;15.43;;;8.07;;
7361;SDS011;3721;44.490;11.220;2023-02-12T00:49:40;12.90;;;7.40;;
7361;SDS011;3721;44.490;11.220;2023-02-12T00:52:06;14.00;;;7.73;;
7361;SDS011;3721;44.490;11.220;2023-02-12T00:54:32;11.67;;;7.30;;
7361;SDS011;3721;44.490;11.220;2023-02-12T00:56:58;14.30;;;7.37;;
7361;SDS011;3721;44.490;11.220;2023-02-12T00:59:24;12.00;;;7.13;;
7361;SDS011;3721;44.490;11.220;2023-02-12T01:01:50;16.20;;;7.67;;
7361;SDS011;3721;44.490;11.220;2023-02-12T01:04:18;14.20;;;7.50;;
7361;SDS011;3721;44.490;11.220;2023-02-12T01:06:43;12.37;;;7.27;;
7361;SDS011;3721;44.490;11.220;2023-02-12T01:09:09;11.67;;;6.10;;
7361;SDS011;3721;44.490;11.220;2023-02-12T01:11:35;12.37;;;6.67;;
7361;SDS011;3721;44.490;11.220;2023-02-12T01:14:01;15.10;;;6.80;;
7361;SDS011;3721;44.490;11.220;2023-02-12T01:16:27;12.30;;;6.63;;
7361;SDS011;3721;44.490;11.220;2023-02-12T01:18:55;12.37;;;5.97;;
7361;SDS011;3721;44.490;11.220;2023-02-12T01:21:28;11.70;;;7.23;;
7361;SDS011;3721;44.490;11.220;2023-02-12T01:23:56;13.67;;;6.63;;
7361;SDS011;3721;44.490;11.220;2023-02-12T01:26:22;14.00;;;7.50;;
7361;SDS011;3721;44.490;11.220;2023-02-12T01:28:52;12.23;;;7.40;;
7361;SDS011;3721;44.490;11.220;2023-02-12T01:31:21;13.10;;;6.73;;
7361;SDS011;3721;44.490;11.220;2023-02-12T01:33:49;12.33;;;7.23;;
7361;SDS011;3721;44.490;11.220;2023-02-12T01:36:17;14.67;;;6.73;;
7361;SDS011;3721;44.490;11.220;2023-02-12T01:38:42;11.90;;;6.47;;
7361;SDS011;3721;44.490;11.220;2023-02-12T01:41:18;12.37;;;6.60;;
7361;SDS011;3721;44.490;11.220;2023-02-12T01:46:34;13.10;;;6.90;;
7361;SDS011;3721;44.490;11.220;2023-02-12T01:49:00;11.87;;;6.87;;
7361;SDS011;3721;44.490;11.220;2023-02-12T01:51:28;13.17;;;6.77;;
7361;SDS011;3721;44.490;11.220;2023-02-12T01:53:54;12.13;;;6.80;;
7361;SDS011;3721;44.490;11.220;2023-02-12T01:56:25;11.13;;;6.43;;
7361;SDS011;3721;44.490;11.220;2023-02-12T01:58:51;17.70;;;6.70;;
7361;SDS011;3721;44.490;11.220;2023-02-12T02:01:20;13.77;;;7.17;;
7361;SDS011;3721;44.490;11.220;2023-02-12T02:03:51;17.67;;;6.10;;
7361;SDS011;3721;44.490;11.220;2023-02-12T02:06:31;11.93;;;6.70;;
7361;SDS011;3721;44.490;11.220;2023-02-12T02:09:00;14.17;;;6.90;;
7361;SDS011;3721;44.490;11.220;2023-02-12T02:11:27;9.80;;;5.67;;
7361;SDS011;3721;44.490;11.220;2023-02-12T02:14:11;12.67;;;6.67;;
7361;SDS011;3721;44.490;11.220;2023-02-12T02:25:35;11.93;;;5.70;;
7361;SDS011;3721;44.490;11.220;2023-02-12T02:31:06;8.87;;;5.47;;
7361;SDS011;3721;44.490;11.220;2023-02-12T02:34:15;11.13;;;5.80;;
7361;SDS011;3721;44.490;11.220;2023-02-12T02:44:22;10.80;;;5.93;;
7361;SDS011;3721;44.490;11.220;2023-02-12T02:46:52;12.27;;;6.20;;
7361;SDS011;3721;44.490;11.220;2023-02-12T02:49:24;10.93;;;4.93;;
7361;SDS011;3721;44.490;11.220;2023-02-12T02:52:04;10.60;;;5.37;;
7361;SDS011;3721;44.490;11.220;2023-02-12T02:54:38;9.60;;;6.17;;
7361;SDS011;3721;44.490;11.220;2023-02-12T02:57:18;13.43;;;6.53;;
7361;SDS011;3721;44.490;11.220;2023-02-12T02:59:51;10.43;;;5.87;;
7361;SDS011;3721;44.490;11.220;2023-02-12T03:02:39;10.60;;;5.80;;
7361;SDS011;3721;44.490;11.220;2023-02-12T03:05:10;10.90;;;5.60;;
7361;SDS011;3721;44.490;11.220;2023-02-12T03:08:24;9.30;;;5.70;;
7361;SDS011;3721;44.490;11.220;2023-02-12T03:10:42;10.80;;;5.77;;
7361;SDS011;3721;44.490;11.220;2023-02-12T03:13:24;9.63;;;5.83;;
7361;SDS011;3721;44.490;11.220;2023-02-12T03:16:20;10.40;;;5.90;;
7361;SDS011;3721;44.490;11.220;2023-02-12T03:18:58;12.90;;;6.20;;
7361;SDS011;3721;44.490;11.220;2023-02-12T03:21:36;10.07;;;5.70;;
7361;SDS011;3721;44.490;11.220;2023-02-12T03:24:25;14.67;;;7.00;;
7361;SDS011;3721;44.490;11.220;2023-02-12T03:29:59;12.10;;;5.97;;
7361;SDS011;3721;44.490;11.220;2023-02-12T03:40:40;9.73;;;5.17;;
7361;SDS011;3721;44.490;11.220;2023-02-12T03:43:18;10.40;;;4.97;;
7361;SDS011;3721;44.490;11.220;2023-02-12T03:48:34;9.77;;;5.13;;
7361;SDS011;3721;44.490;11.220;2023-02-12T03:53:49;10.60;;;5.10;;
7361;SDS011;3721;44.490;11.220;2023-02-12T03:56:19;10.87;;;5.50;;
7361;SDS011;3721;44.490;11.220;2023-02-12T03:58:49;12.40;;;5.80;;
7361;SDS011;3721;44.490;11.220;2023-02-12T04:01:15;8.77;;;5.53;;
7361;SDS011;3721;44.490;11.220;2023-02-12T04:03:41;9.80;;;5.73;;
7361;SDS011;3721;44.490;11.220;2023-02-12T04:06:24;9.90;;;5.50;;
7361;SDS011;3721;44.490;11.220;2023-02-12T04:08:52;10.03;;;5.53;;
7361;SDS011;3721;44.490;11.220;2023-02-12T04:19:25;10.00;;;5.50;;
7361;SDS011;3721;44.490;11.220;2023-02-12T04:27:48;13.70;;;5.10;;
7361;SDS011;3721;44.490;11.220;2023-02-12T04:30:31;9.67;;;4.90;;
7361;SDS011;3721;44.490;11.220;2023-02-12T04:33:02;9.70;;;5.27;;
7361;SDS011;3721;44.490;11.220;2023-02-12T04:35:34;9.73;;;5.20;;
7361;SDS011;3721;44.490;11.220;2023-02-12T04:40:42;8.27;;;5.10;;
7361;SDS011;3721;44.490;11.220;2023-02-12T04:43:08;10.90;;;5.67;;
7361;SDS011;3721;44.490;11.220;2023-02-12T04:45:35;7.60;;;4.70;;
7361;SDS011;3721;44.490;11.220;2023-02-12T04:48:01;9.77;;;4.80;;
7361;SDS011;3721;44.490;11.220;2023-02-12T04:50:29;9.23;;;4.50;;
7361;SDS011;3721;44.490;11.220;2023-02-12T04:53:06;8.27;;;4.90;;
7361;SDS011;3721;44.490;11.220;2023-02-12T04:55:32;10.40;;;5.10;;
7361;SDS011;3721;44.490;11.220;2023-02-12T04:57:57;8.87;;;5.33;;
7361;SDS011;3721;44.490;11.220;2023-02-12T05:00:23;10.30;;;5.47;;
7361;SDS011;3721;44.490;11.220;2023-02-12T05:02:49;9.70;;;5.00;;
7361;SDS011;3721;44.490;11.220;2023-02-12T05:05:15;13.30;;;5.40;;
7361;SDS011;3721;44.490;11.220;2023-02-12T05:07:40;8.77;;;5.00;;
7361;SDS011;3721;44.490;11.220;2023-02-12T05:10:06;13.73;;;6.43;;
7361;SDS011;3721;44.490;11.220;2023-02-12T05:12:32;17.60;;;5.40;;
7361;SDS011;3721;44.490;11.220;2023-02-12T05:14:58;11.43;;;5.73;;
7361;SDS011;3721;44.490;11.220;2023-02-12T05:17:23;8.03;;;4.87;;
7361;SDS011;3721;44.490;11.220;2023-02-12T05:19:49;6.80;;;4.40;;
7361;SDS011;3721;44.490;11.220;2023-02-12T05:22:15;9.80;;;5.20;;
7361;SDS011;3721;44.490;11.220;2023-02-12T05:24:41;7.53;;;4.40;;
7361;SDS011;3721;44.490;11.220;2023-02-12T05:27:07;10.30;;;6.13;;
7361;SDS011;3721;44.490;11.220;2023-02-12T05:29:33;10.10;;;5.40;;
7361;SDS011;3721;44.490;11.220;2023-02-12T05:32:13;10.90;;;5.50;;
7361;SDS011;3721;44.490;11.220;2023-02-12T05:34:39;10.24;;;6.06;;
7361;SDS011;3721;44.490;11.220;2023-02-12T05:37:04;10.10;;;5.10;;
7361;SDS011;3721;44.490;11.220;2023-02-12T05:39:41;10.50;;;4.80;;
7361;SDS011;3721;44.490;11.220;2023-02-12T05:42:07;10.70;;;5.60;;
7361;SDS011;3721;44.490;11.220;2023-02-12T05:44:33;11.53;;;5.93;;
7361;SDS011;3721;44.490;11.220;2023-02-12T05:46:58;12.30;;;5.50;;
7361;SDS011;3721;44.490;11.220;2023-02-12T05:49:24;6.80;;;4.40;;
7361;SDS011;3721;44.490;11.220;2023-02-12T05:51:49;12.73;;;6.20;;
7361;SDS011;3721;44.490;11.220;2023-02-12T05:54:15;8.93;;;5.43;;
7361;SDS011;3721;44.490;11.220;2023-02-12T05:56:42;8.40;;;5.00;;
7361;SDS011;3721;44.490;11.220;2023-02-12T05:59:14;10.20;;;5.97;;
7361;SDS011;3721;44.490;11.220;2023-02-12T06:01:44;8.80;;;5.20;;
7361;SDS011;3721;44.490;11.220;2023-02-12T06:04:22;8.40;;;5.30;;
7361;SDS011;3721;44.490;11.220;2023-02-12T06:06:50;9.03;;;5.57;;
7361;SDS011;3721;44.490;11.220;2023-02-12T06:09:17;10.47;;;5.93;;
7361;SDS011;3721;44.490;11.220;2023-02-12T06:11:43;9.83;;;5.43;;
7361;SDS011;3721;44.490;11.220;2023-02-12T06:14:10;9.13;;;4.90;;
7361;SDS011;3721;44.490;11.220;2023-02-12T06:16:38;8.93;;;5.10;;
7361;SDS011;3721;44.490;11.220;2023-02-12T06:19:04;10.30;;;5.40;;
7361;SDS011;3721;44.490;11.220;2023-02-12T06:21:30;8.83;;;4.60;;
7361;SDS011;3721;44.490;11.220;2023-02-12T06:23:57;10.27;;;5.43;;
7361;SDS011;3721;44.490;11.220;2023-02-12T06:26:23;10.50;;;5.07;;
7361;SDS011;3721;44.490;11.220;2023-02-12T06:28:50;10.97;;;4.83;;
7361;SDS011;3721;44.490;11.220;2023-02-12T06:33:42;7.07;;;4.57;;
7361;SDS011;3721;44.490;11.220;2023-02-12T06:36:08;12.40;;;5.47;;
7361;SDS011;3721;44.490;11.220;2023-02-12T06:38:34;7.10;;;4.70;;
7361;SDS011;3721;44.490;11.220;2023-02-12T06:41:03;8.10;;;4.87;;
7361;SDS011;3721;44.490;11.220;2023-02-12T06:43:29;8.80;;;5.07;;
7361;SDS011;3721;44.490;11.220;2023-02-12T06:45:55;9.57;;;5.40;;
7361;SDS011;3721;44.490;11.220;2023-02-12T06:48:20;9.00;;;4.97;;
7361;SDS011;3721;44.490;11.220;2023-02-12T06:50:46;10.33;;;5.10;;
7361;SDS011;3721;44.490;11.220;2023-02-12T06:53:12;11.60;;;5.67;;
7361;SDS011;3721;44.490;11.220;2023-02-12T06:55:37;7.87;;;4.33;;
7361;SDS011;3721;44.490;11.220;2023-02-12T06:58:03;9.60;;;5.17;;
7361;SDS011;3721;44.490;11.220;2023-02-12T07:00:28;9.47;;;5.20;;
7361;SDS011;3721;44.490;11.220;2023-02-12T07:02:54;8.30;;;4.37;;
7361;SDS011;3721;44.490;11.220;2023-02-12T07:05:20;7.70;;;5.10;;
7361;SDS011;3721;44.490;11.220;2023-02-12T07:07:46;8.13;;;5.10;;
7361;SDS011;3721;44.490;11.220;2023-02-12T07:10:12;11.37;;;4.60;;
7361;SDS011;3721;44.490;11.220;2023-02-12T07:12:38;8.37;;;4.73;;
7361;SDS011;3721;44.490;11.220;2023-02-12T07:15:03;10.60;;;5.53;;
7361;SDS011;3721;44.490;11.220;2023-02-12T07:17:29;10.30;;;5.90;;
7361;SDS011;3721;44.490;11.220;2023-02-12T07:19:55;9.87;;;5.00;;
7361;SDS011;3721;44.490;11.220;2023-02-12T07:22:21;19.53;;;5.57;;
7361;SDS011;3721;44.490;11.220;2023-02-12T07:24:47;10.53;;;5.67;;
7361;SDS011;3721;44.490;11.220;2023-02-12T07:27:12;9.90;;;5.40;;
7361;SDS011;3721;44.490;11.220;2023-02-12T07:29:38;9.17;;;5.10;;
7361;SDS011;3721;44.490;11.220;2023-02-12T07:32:04;10.80;;;5.70;;
7361;SDS011;3721;44.490;11.220;2023-02-12T07:34:30;11.30;;;5.93;;
7361;SDS011;3721;44.490;11.220;2023-02-12T07:36:56;13.90;;;5.53;;
7361;SDS011;3721;44.490;11.220;2023-02-12T07:39:22;10.80;;;5.33;;
7361;SDS011;3721;44.490;11.220;2023-02-12T07:41:48;7.20;;;5.20;;
7361;SDS011;3721;44.490;11.220;2023-02-12T07:44:13;8.63;;;5.07;;
7361;SDS011;3721;44.490;11.220;2023-02-12T07:46:41;8.73;;;5.20;;
7361;SDS011;3721;44.490;11.220;2023-02-12T07:49:09;10.70;;;5.77;;
7361;SDS011;3721;44.490;11.220;2023-02-12T07:51:43;8.63;;;5.10;;
7361;SDS011;3721;44.490;11.220;2023-02-12T07:54:09;10.70;;;5.40;;
7361;SDS011;3721;44.490;11.220;2023-02-12T07:56:35;11.60;;;5.87;;
7361;SDS011;3721;44.490;11.220;2023-02-12T07:59:04;12.90;;;5.37;;
7361;SDS011;3721;44.490;11.220;2023-02-12T08:01:32;9.30;;;5.33;;
7361;SDS011;3721;44.490;11.220;2023-02-12T08:04:03;9.60;;;5.00;;
7361;SDS011;3721;44.490;11.220;2023-02-12T08:06:31;11.30;;;4.93;;
7361;SDS011;3721;44.490;11.220;2023-02-12T08:09:00;10.93;;;5.63;;
7361;SDS011;3721;44.490;11.220;2023-02-12T08:11:28;10.63;;;5.50;;
7361;SDS011;3721;44.490;11.220;2023-02-12T08:13:55;9.37;;;5.20;;
7361;SDS011;3721;44.490;11.220;2023-02-12T08:16:22;12.07;;;5.90;;
7361;SDS011;3721;44.490;11.220;2023-02-12T08:18:49;12.23;;;5.83;;
7361;SDS011;3721;44.490;11.220;2023-02-12T08:21:16;8.87;;;5.20;;
7361;SDS011;3721;44.490;11.220;2023-02-12T08:23:44;8.90;;;4.97;;
7361;SDS011;3721;44.490;11.220;2023-02-12T08:26:12;9.77;;;5.77;;
7361;SDS011;3721;44.490;11.220;2023-02-12T08:28:41;12.67;;;6.70;;
7361;SDS011;3721;44.490;11.220;2023-02-12T08:31:13;14.00;;;6.30;;
7361;SDS011;3721;44.490;11.220;2023-02-12T08:33:44;11.20;;;6.20;;
7361;SDS011;3721;44.490;11.220;2023-02-12T08:36:12;10.33;;;6.13;;
7361;SDS011;3721;44.490;11.220;2023-02-12T08:38:40;13.43;;;6.67;;
7361;SDS011;3721;44.490;11.220;2023-02-12T08:41:07;9.00;;;6.13;;
7361;SDS011;3721;44.490;11.220;2023-02-12T08:43:39;10.13;;;6.40;;
7361;SDS011;3721;44.490;11.220;2023-02-12T08:46:14;12.33;;;6.10;;
7361;SDS011;3721;44.490;11.220;2023-02-12T08:48:44;12.20;;;7.07;;
7361;SDS011;3721;44.490;11.220;2023-02-12T08:51:18;13.20;;;6.70;;
7361;SDS011;3721;44.490;11.220;2023-02-12T08:53:46;11.37;;;6.93;;
7361;SDS011;3721;44.490;11.220;2023-02-12T08:56:16;12.30;;;6.87;;
7361;SDS011;3721;44.490;11.220;2023-02-12T08:58:42;11.20;;;6.30;;
7361;SDS011;3721;44.490;11.220;2023-02-12T09:01:10;14.87;;;7.00;;
7361;SDS011;3721;44.490;11.220;2023-02-12T09:03:39;10.97;;;6.87;;
7361;SDS011;3721;44.490;11.220;2023-02-12T09:06:05;11.60;;;7.90;;
7361;SDS011;3721;44.490;11.220;2023-02-12T09:08:31;12.20;;;6.70;;
7361;SDS011;3721;44.490;11.220;2023-02-12T09:10:57;14.23;;;7.33;;
7361;SDS011;3721;44.490;11.220;2023-02-12T09:13:23;13.30;;;7.50;;
7361;SDS011;3721;44.490;11.220;2023-02-12T09:15:49;14.50;;;7.20;;
7361;SDS011;3721;44.490;11.220;2023-02-12T09:18:15;14.17;;;7.80;;
7361;SDS011;3721;44.490;11.220;2023-02-12T09:20:42;16.53;;;8.70;;
7361;SDS011;3721;44.490;11.220;2023-02-12T09:23:10;13.73;;;8.73;;
7361;SDS011;3721;44.490;11.220;2023-02-12T09:25:38;27.10;;;21.13;;
7361;SDS011;3721;44.490;11.220;2023-02-12T09:28:05;16.70;;;10.60;;
7361;SDS011;3721;44.490;11.220;2023-02-12T09:30:30;15.10;;;9.57;;
7361;SDS011;3721;44.490;11.220;2023-02-12T09:32:56;14.87;;;8.37;;
7361;SDS011;3721;44.490;11.220;2023-02-12T09:35:22;14.70;;;8.00;;
7361;SDS011;3721;44.490;11.220;2023-02-12T09:37:48;16.00;;;9.00;;
7361;SDS011;3721;44.490;11.220;2023-02-12T09:40:18;16.03;;;8.20;;
7361;SDS011;3721;44.490;11.220;2023-02-12T09:45:27;12.87;;;8.17;;
7361;SDS011;3721;44.490;11.220;2023-02-12T09:50:53;12.83;;;8.70;;
7361;SDS011;3721;44.490;11.220;2023-02-12T09:53:22;18.93;;;9.20;;
7361;SDS011;3721;44.490;11.220;2023-02-12T09:55:51;15.90;;;9.23;;
7361;SDS011;3721;44.490;11.220;2023-02-12T09:58:31;12.73;;;8.23;;
7361;SDS011;3721;44.490;11.220;2023-02-12T10:01:00;16.97;;;8.90;;
7361;SDS011;3721;44.490;11.220;2023-02-12T10:03:34;16.20;;;8.80;;
7361;SDS011;3721;44.490;11.220;2023-02-12T10:06:16;20.30;;;8.87;;
7361;SDS011;3721;44.490;11.220;2023-02-12T10:09:01;14.33;;;8.13;;
7361;SDS011;3721;44.490;11.220;2023-02-12T10:12:03;17.00;;;9.70;;
7361;SDS011;3721;44.490;11.220;2023-02-12T10:18:19;14.53;;;8.13;;
7361;SDS011;3721;44.490;11.220;2023-02-12T10:20:32;14.50;;;8.70;;
7361;SDS011;3721;44.490;11.220;2023-02-12T10:25:50;16.57;;;8.67;;
7361;SDS011;3721;44.490;11.220;2023-02-12T10:28:24;15.20;;;8.97;;
7361;SDS011;3721;44.490;11.220;2023-02-12T10:30:59;15.00;;;8.20;;
7361;SDS011;3721;44.490;11.220;2023-02-12T10:33:48;16.93;;;9.53;;
7361;SDS011;3721;44.490;11.220;2023-02-12T10:38:47;16.40;;;8.57;;
7361;SDS011;3721;44.490;11.220;2023-02-12T10:41:15;16.67;;;8.97;;
7361;SDS011;3721;44.490;11.220;2023-02-12T10:43:42;24.33;;;9.53;;
7361;SDS011;3721;44.490;11.220;2023-02-12T10:46:14;20.50;;;10.80;;
7361;SDS011;3721;44.490;11.220;2023-02-12T10:48:41;16.93;;;9.10;;
7361;SDS011;3721;44.490;11.220;2023-02-12T10:54:43;17.33;;;8.97;;
7361;SDS011;3721;44.490;11.220;2023-02-12T10:57:05;17.63;;;9.07;;
7361;SDS011;3721;44.490;11.220;2023-02-12T10:59:34;17.00;;;8.23;;
7361;SDS011;3721;44.490;11.220;2023-02-12T11:02:00;15.40;;;8.17;;
7361;SDS011;3721;44.490;11.220;2023-02-12T11:04:27;14.80;;;8.40;;
7361;SDS011;3721;44.490;11.220;2023-02-12T11:06:59;20.23;;;9.40;;
7361;SDS011;3721;44.490;11.220;2023-02-12T11:09:29;16.13;;;8.50;;
7361;SDS011;3721;44.490;11.220;2023-02-12T11:12:00;16.00;;;7.80;;
7361;SDS011;3721;44.490;11.220;2023-02-12T11:14:26;16.90;;;8.43;;
7361;SDS011;3721;44.490;11.220;2023-02-12T11:27:11;13.20;;;7.93;;
7361;SDS011;3721;44.490;11.220;2023-02-12T11:29:37;18.13;;;9.13;;
7361;SDS011;3721;44.490;11.220;2023-02-12T11:32:16;13.13;;;8.10;;
7361;SDS011;3721;44.490;11.220;2023-02-12T11:34:43;15.40;;;8.30;;
7361;SDS011;3721;44.490;11.220;2023-02-12T11:37:17;20.98;;;10.18;;
7361;SDS011;3721;44.490;11.220;2023-02-12T11:40:03;13.96;;;8.47;;
7361;SDS011;3721;44.490;11.220;2023-02-12T11:42:32;13.80;;;8.90;;
7361;SDS011;3721;44.490;11.220;2023-02-12T11:45:01;17.83;;;9.90;;
7361;SDS011;3721;44.490;11.220;2023-02-12T11:47:29;16.90;;;9.20;;
7361;SDS011;3721;44.490;11.220;2023-02-12T11:52:58;17.10;;;8.03;;
7361;SDS011;3721;44.490;11.220;2023-02-12T11:55:27;19.47;;;10.40;;
7361;SDS011;3721;44.490;11.220;2023-02-12T11:58:15;15.67;;;9.20;;
7361;SDS011;3721;44.490;11.220;2023-02-12T12:01:07;17.23;;;9.10;;
7361;SDS011;3721;44.490;11.220;2023-02-12T12:03:59;18.23;;;10.43;;
7361;SDS011;3721;44.490;11.220;2023-02-12T12:14:02;17.13;;;10.90;;
7361;SDS011;3721;44.490;11.220;2023-02-12T12:16:59;17.83;;;10.13;;
7361;SDS011;3721;44.490;11.220;2023-02-12T12:19:55;19.37;;;11.50;;
7361;SDS011;3721;44.490;11.220;2023-02-12T12:25:22;18.60;;;10.73;;
7361;SDS011;3721;44.490;11.220;2023-02-12T12:27:53;26.30;;;11.77;;
7361;SDS011;3721;44.490;11.220;2023-02-12T12:30:36;22.03;;;12.30;;
7361;SDS011;3721;44.490;11.220;2023-02-12T12:33:04;23.00;;;12.20;;
7361;SDS011;3721;44.490;11.220;2023-02-12T12:35:53;24.13;;;12.63;;
7361;SDS011;3721;44.490;11.220;2023-02-12T12:41:23;25.40;;;12.67;;
7361;SDS011;3721;44.490;11.220;2023-02-12T13:30:35;29.90;;;18.40;;
7361;SDS011;3721;44.490;11.220;2023-02-12T13:33:09;27.50;;;15.67;;
7361;SDS011;3721;44.490;11.220;2023-02-12T13:35:51;28.33;;;16.23;;
7361;SDS011;3721;44.490;11.220;2023-02-12T13:38:22;25.67;;;16.10;;
7361;SDS011;3721;44.490;11.220;2023-02-12T13:40:53;35.07;;;18.67;;
7361;SDS011;3721;44.490;11.220;2023-02-12T13:51:48;34.37;;;18.37;;
7361;SDS011;3721;44.490;11.220;2023-02-12T13:57:25;41.83;;;18.13;;
7361;SDS011;3721;44.490;11.220;2023-02-12T14:05:01;32.60;;;17.93;;
7361;SDS011;3721;44.490;11.220;2023-02-12T14:07:48;29.93;;;17.40;;
7361;SDS011;3721;44.490;11.220;2023-02-12T14:10:24;28.97;;;17.87;;
7361;SDS011;3721;44.490;11.220;2023-02-12T14:12:57;32.47;;;17.40;;
7361;SDS011;3721;44.490;11.220;2023-02-12T14:15:33;36.23;;;18.53;;
7361;SDS011;3721;44.490;11.220;2023-02-12T14:20:46;31.63;;;16.80;;
7361;SDS011;3721;44.490;11.220;2023-02-12T14:23:25;30.13;;;17.43;;
7361;SDS011;3721;44.490;11.220;2023-02-12T14:28:26;32.57;;;18.87;;
7361;SDS011;3721;44.490;11.220;2023-02-12T14:33:43;39.73;;;19.70;;
7361;SDS011;3721;44.490;11.220;2023-02-12T14:41:22;36.90;;;21.00;;
7361;SDS011;3721;44.490;11.220;2023-02-12T14:46:54;41.73;;;20.07;;
7361;SDS011;3721;44.490;11.220;2023-02-12T14:49:23;41.00;;;20.83;;
7361;SDS011;3721;44.490;11.220;2023-02-12T14:52:05;40.70;;;21.73;;
7361;SDS011;3721;44.490;11.220;2023-02-12T14:57:24;40.60;;;22.40;;
7361;SDS011;3721;44.490;11.220;2023-02-12T14:59:57;40.00;;;22.90;;
7361;SDS011;3721;44.490;11.220;2023-02-12T15:02:26;42.67;;;21.90;;
7361;SDS011;3721;44.490;11.220;2023-02-12T15:04:57;41.13;;;23.33;;
7361;SDS011;3721;44.490;11.220;2023-02-12T15:07:38;37.90;;;23.33;;
7361;SDS011;3721;44.490;11.220;2023-02-12T15:10:18;45.57;;;24.40;;
7361;SDS011;3721;44.490;11.220;2023-02-12T15:16:22;44.63;;;26.10;;
7361;SDS011;3721;44.490;11.220;2023-02-12T15:18:49;41.40;;;25.27;;
7361;SDS011;3721;44.490;11.220;2023-02-12T15:21:22;40.97;;;23.93;;
7361;SDS011;3721;44.490;11.220;2023-02-12T15:23:59;49.03;;;27.80;;
7361;SDS011;3721;44.490;11.220;2023-02-12T15:26:28;48.23;;;28.80;;
7361;SDS011;3721;44.490;11.220;2023-02-12T15:28:57;50.50;;;29.30;;
7361;SDS011;3721;44.490;11.220;2023-02-12T15:31:27;49.10;;;27.10;;
7361;SDS011;3721;44.490;11.220;2023-02-12T15:33:55;46.00;;;28.77;;
7361;SDS011;3721;44.490;11.220;2023-02-12T15:36:23;50.93;;;27.63;;
7361;SDS011;3721;44.490;11.220;2023-02-12T15:38:52;51.10;;;29.80;;
7361;SDS011;3721;44.490;11.220;2023-02-12T15:41:37;51.63;;;29.67;;
7361;SDS011;3721;44.490;11.220;2023-02-12T15:46:53;49.00;;;29.77;;
7361;SDS011;3721;44.490;11.220;2023-02-12T15:49:19;46.83;;;29.37;;
7361;SDS011;3721;44.490;11.220;2023-02-12T15:51:46;46.00;;;26.87;;
7361;SDS011;3721;44.490;11.220;2023-02-12T15:54:12;50.37;;;29.83;;
7361;SDS011;3721;44.490;11.220;2023-02-12T15:56:42;48.90;;;29.60;;
7361;SDS011;3721;44.490;11.220;2023-02-12T15:59:14;47.30;;;28.30;;
7361;SDS011;3721;44.490;11.220;2023-02-12T16:01:54;47.47;;;27.90;;
7361;SDS011;3721;44.490;11.220;2023-02-12T16:04:22;50.87;;;28.73;;
7361;SDS011;3721;44.490;11.220;2023-02-12T16:06:50;52.67;;;30.27;;
7361;SDS011;3721;44.490;11.220;2023-02-12T16:09:18;42.57;;;28.03;;
7361;SDS011;3721;44.490;11.220;2023-02-12T16:11:54;46.83;;;27.63;;
7361;SDS011;3721;44.490;11.220;2023-02-12T16:14:23;51.30;;;28.03;;
7361;SDS011;3721;44.490;11.220;2023-02-12T16:16:52;49.23;;;28.37;;
7361;SDS011;3721;44.490;11.220;2023-02-12T16:19:29;42.57;;;28.40;;
7361;SDS011;3721;44.490;11.220;2023-02-12T16:24:33;56.10;;;29.70;;
7361;SDS011;3721;44.490;11.220;2023-02-12T16:27:06;52.67;;;28.97;;
7361;SDS011;3721;44.490;11.220;2023-02-12T16:29:48;49.80;;;29.97;;
7361;SDS011;3721;44.490;11.220;2023-02-12T16:34:58;51.03;;;29.27;;
7361;SDS011;3721;44.490;11.220;2023-02-12T16:42:37;50.60;;;30.70;;
7361;SDS011;3721;44.490;11.220;2023-02-12T16:50:33;57.37;;;31.53;;
7361;SDS011;3721;44.490;11.220;2023-02-12T16:53:21;56.57;;;31.23;;
7361;SDS011;3721;44.490;11.220;2023-02-12T16:55:47;55.00;;;33.03;;
7361;SDS011;3721;44.490;11.220;2023-02-12T16:58:13;59.17;;;31.00;;
7361;SDS011;3721;44.490;11.220;2023-02-12T17:00:39;56.80;;;32.23;;
7361;SDS011;3721;44.490;11.220;2023-02-12T17:03:05;56.37;;;31.53;;
7361;SDS011;3721;44.490;11.220;2023-02-12T17:05:30;55.83;;;32.03;;
7361;SDS011;3721;44.490;11.220;2023-02-12T17:07:56;59.57;;;32.60;;
7361;SDS011;3721;44.490;11.220;2023-02-12T17:10:22;54.53;;;30.70;;
7361;SDS011;3721;44.490;11.220;2023-02-12T17:12:51;53.07;;;32.10;;
7361;SDS011;3721;44.490;11.220;2023-02-12T17:15:19;57.30;;;31.17;;
7361;SDS011;3721;44.490;11.220;2023-02-12T17:18:00;58.20;;;31.60;;
7361;SDS011;3721;44.490;11.220;2023-02-12T17:20:31;63.19;;;33.50;;
7361;SDS011;3721;44.490;11.220;2023-02-12T17:22:56;58.83;;;32.60;;
7361;SDS011;3721;44.490;11.220;2023-02-12T17:25:39;59.39;;;33.33;;
7361;SDS011;3721;44.490;11.220;2023-02-12T17:28:05;64.40;;;33.03;;
7361;SDS011;3721;44.490;11.220;2023-02-12T17:30:32;49.77;;;31.10;;
7361;SDS011;3721;44.490;11.220;2023-02-12T17:32:58;59.27;;;34.40;;
7361;SDS011;3721;44.490;11.220;2023-02-12T17:35:24;52.03;;;31.67;;
7361;SDS011;3721;44.490;11.220;2023-02-12T17:37:50;48.17;;;29.97;;
7361;SDS011;3721;44.490;11.220;2023-02-12T17:40:16;55.17;;;29.33;;
7361;SDS011;3721;44.490;11.220;2023-02-12T17:42:42;54.83;;;28.90;;
7361;SDS011;3721;44.490;11.220;2023-02-12T17:45:08;53.00;;;30.50;;
7361;SDS011;3721;44.490;11.220;2023-02-12T17:47:34;54.90;;;31.80;;
7361;SDS011;3721;44.490;11.220;2023-02-12T17:50:05;50.07;;;29.57;;
7361;SDS011;3721;44.490;11.220;2023-02-12T17:52:33;62.23;;;34.33;;
7361;SDS011;3721;44.490;11.220;2023-02-12T17:54:58;54.60;;;33.17;;
7361;SDS011;3721;44.490;11.220;2023-02-12T17:57:24;55.50;;;31.40;;
7361;SDS011;3721;44.490;11.220;2023-02-12T17:59:50;59.33;;;33.30;;
7361;SDS011;3721;44.490;11.220;2023-02-12T18:02:15;57.70;;;31.43;;
7361;SDS011;3721;44.490;11.220;2023-02-12T18:04:41;57.30;;;31.50;;
7361;SDS011;3721;44.490;11.220;2023-02-12T18:07:06;55.37;;;31.20;;
7361;SDS011;3721;44.490;11.220;2023-02-12T18:09:32;52.13;;;31.23;;
7361;SDS011;3721;44.490;11.220;2023-02-12T18:12:00;54.07;;;32.33;;
7361;SDS011;3721;44.490;11.220;2023-02-12T18:14:25;61.07;;;32.17;;
7361;SDS011;3721;44.490;11.220;2023-02-12T18:16:51;60.53;;;34.37;;
7361;SDS011;3721;44.490;11.220;2023-02-12T18:19:17;56.60;;;33.13;;
7361;SDS011;3721;44.490;11.220;2023-02-12T18:21:42;61.50;;;33.83;;
7361;SDS011;3721;44.490;11.220;2023-02-12T18:24:08;51.40;;;32.37;;
7361;SDS011;3721;44.490;11.220;2023-02-12T18:26:34;55.00;;;31.20;;
7361;SDS011;3721;44.490;11.220;2023-02-12T18:29:00;56.70;;;33.10;;